createdAt,value
2022-09-18T00:03:57.574Z,12.01
2022-09-18T00:09:00.549Z,12.01
2022-09-18T00:14:02.988Z,12.10
2022-09-18T00:19:05.706Z,12.05
2022-09-18T00:24:07.100Z,12.13
2022-09-18T00:29:08.397Z,12.06
2022-09-18T00:34:14.470Z,12.14
2022-09-18T00:39:30.191Z,12.15
2022-09-18T00:44:39.412Z,12.17
2022-09-18T00:49:58.954Z,12.15
2022-09-18T00:55:09.845Z,11.99
2022-09-18T01:00:14.238Z,12.08
2022-09-18T01:05:18.959Z,12.02
2022-09-18T01:10:29.329Z,12.09
2022-09-18T01:15:47.897Z,12.09
2022-09-18T01:21:02.145Z,12.03
2022-09-18T01:26:30.946Z,12.07
2022-09-18T01:31:41.694Z,12.20
2022-09-18T01:36:48.356Z,12.23
2022-09-18T01:41:51.881Z,12.18
2022-09-18T01:46:56.214Z,12.27
2022-09-18T01:52:06.092Z,12.31
2022-09-18T01:57:22.725Z,12.30
2022-09-18T02:02:31.015Z,12.15
2022-09-18T02:07:45.939Z,12.37
2022-09-18T02:12:48.431Z,12.31
2022-09-18T02:17:55.772Z,12.33
2022-09-18T02:23:02.082Z,12.32
2022-09-18T02:28:05.910Z,12.31
2022-09-18T02:33:33.305Z,12.34
2022-09-18T02:39:14.721Z,12.41
2022-09-18T02:44:27.414Z,12.39
2022-09-18T02:49:59.310Z,12.44
2022-09-18T02:55:23.779Z,12.50
2022-09-18T03:00:27.210Z,12.43
2022-09-18T03:05:28.472Z,12.50
2022-09-18T03:10:29.782Z,12.55
2022-09-18T03:15:31.937Z,12.46
2022-09-18T03:20:33.216Z,12.34
2022-09-18T03:25:35.307Z,12.33
2022-09-18T03:30:36.616Z,12.33
2022-09-18T03:35:38.104Z,12.43
2022-09-18T03:40:47.184Z,12.47
2022-09-18T03:45:49.065Z,12.38
2022-09-18T03:50:50.630Z,12.36
2022-09-18T03:55:52.251Z,12.36
2022-09-18T04:00:53.533Z,12.41
2022-09-18T04:05:54.809Z,12.33
2022-09-18T04:10:56.077Z,12.41
2022-09-18T04:15:57.447Z,12.41
2022-09-18T04:20:58.698Z,12.42
2022-09-18T04:26:00.792Z,12.37
2022-09-18T04:31:02.119Z,12.44
2022-09-18T04:36:03.642Z,12.46
2022-09-18T04:41:05.257Z,12.42
2022-09-18T04:46:06.631Z,12.49
2022-09-18T04:51:08.681Z,12.41
2022-09-18T04:56:09.995Z,12.37
2022-09-18T05:01:11.521Z,12.43
2022-09-18T05:06:12.876Z,12.43
2022-09-18T05:11:14.540Z,12.44
2022-09-18T05:16:16.917Z,12.29
2022-09-18T05:21:19.172Z,12.35
2022-09-18T05:26:20.414Z,12.14
2022-09-18T05:31:21.699Z,12.18
2022-09-18T05:36:23.005Z,12.20
2022-09-18T05:41:24.286Z,12.36
2022-09-18T05:46:25.564Z,12.24
2022-09-18T05:51:26.863Z,12.34
2022-09-18T05:56:28.326Z,12.40
2022-09-18T06:01:30.908Z,12.41
2022-09-18T06:06:32.294Z,12.36
2022-09-18T06:11:33.879Z,12.40
2022-09-18T06:16:38.726Z,12.46
2022-09-18T06:21:43.400Z,12.64
2022-09-18T06:26:44.717Z,12.53
2022-09-18T06:31:46.070Z,12.49
2022-09-18T06:36:47.343Z,12.51
2022-09-18T06:41:49.570Z,12.55
2022-09-18T06:46:50.837Z,12.51
2022-09-18T06:51:52.187Z,12.48
2022-09-18T06:56:53.477Z,12.46
2022-09-18T07:01:54.784Z,12.53
2022-09-18T07:06:56.053Z,12.42
2022-09-18T07:11:57.378Z,12.43
2022-09-18T07:16:58.642Z,12.53
2022-09-18T07:21:59.917Z,12.40
2022-09-18T07:27:01.201Z,12.67
2022-09-18T07:32:02.427Z,12.80
2022-09-18T07:37:03.697Z,12.70
2022-09-18T07:42:08.810Z,12.66
2022-09-18T07:47:11.614Z,12.84
2022-09-18T07:52:13.259Z,12.82
2022-09-18T07:57:14.665Z,12.86
2022-09-18T08:02:16.141Z,12.87
2022-09-18T08:07:17.535Z,13.11
2022-09-18T08:12:18.975Z,13.30
2022-09-18T08:17:20.237Z,13.57
2022-09-18T08:22:21.512Z,13.57
2022-09-18T08:27:22.884Z,13.35
2022-09-18T08:32:24.130Z,13.37
2022-09-18T08:37:25.958Z,13.42
2022-09-18T08:42:59.772Z,13.32
2022-09-18T08:48:11.718Z,13.37
2022-09-18T08:53:22.720Z,13.42
2022-09-18T08:58:37.410Z,13.44
2022-09-18T09:03:59.867Z,13.41
2022-09-18T09:09:22.678Z,13.37
2022-09-18T09:14:56.255Z,13.33
2022-09-18T09:20:08.914Z,13.49
2022-09-18T09:25:36.197Z,13.37
2022-09-18T09:30:39.418Z,13.38
2022-09-18T09:35:48.225Z,13.36
2022-09-18T09:40:54.159Z,13.44
2022-09-18T09:45:59.514Z,13.55
2022-09-18T09:51:16.857Z,13.60
2022-09-18T09:56:37.553Z,13.70
2022-09-18T10:01:45.699Z,13.78
2022-09-18T10:07:18.826Z,13.71
2022-09-18T10:12:44.378Z,13.94
2022-09-18T10:17:50.861Z,13.90
2022-09-18T10:22:52.313Z,14.25
2022-09-18T10:27:53.831Z,14.48
2022-09-18T10:32:55.189Z,14.26
2022-09-18T10:37:57.759Z,14.12
2022-09-18T10:42:59.974Z,14.13
2022-09-18T10:48:18.065Z,14.00
2022-09-18T10:53:43.345Z,14.17
2022-09-18T11:04:17.147Z,14.21
2022-09-18T11:09:23.308Z,14.20
2022-09-18T11:14:38.412Z,14.22
2022-09-18T11:19:40.179Z,14.11
2022-09-18T11:24:47.381Z,14.19
2022-09-18T11:29:52.310Z,14.23
2022-09-18T11:35:13.173Z,14.29
2022-09-18T11:40:35.556Z,14.30
2022-09-18T11:45:42.798Z,14.41
2022-09-18T11:50:45.442Z,14.29
2022-09-18T11:55:58.136Z,14.24
2022-09-18T12:01:13.566Z,14.11
2022-09-18T12:06:28.976Z,14.12
2022-09-18T12:12:06.988Z,14.25
2022-09-18T12:17:23.918Z,14.44
2022-09-18T12:22:47.212Z,14.43
2022-09-18T12:28:15.171Z,14.56
2022-09-18T12:33:42.178Z,14.58
2022-09-18T12:39:01.631Z,14.61
2022-09-18T12:44:31.761Z,14.50
2022-09-18T12:50:12.094Z,14.70
2022-09-18T12:55:40.645Z,14.71
2022-09-18T13:01:00.144Z,14.65
2022-09-18T13:06:11.771Z,14.61
2022-09-18T13:11:34.948Z,14.57
2022-09-18T13:16:55.595Z,14.58
2022-09-18T13:22:14.268Z,14.54
2022-09-18T13:27:21.635Z,14.50
2022-09-18T13:32:37.602Z,14.29
2022-09-18T13:37:51.402Z,14.27
2022-09-18T13:42:54.290Z,14.21
2022-09-18T13:48:40.044Z,14.20
2022-09-18T13:53:57.946Z,14.29
2022-09-18T13:59:00.367Z,14.19
2022-09-18T14:04:39.511Z,14.26
2022-09-18T14:09:52.587Z,14.37
2022-09-18T14:15:19.495Z,14.23
2022-09-18T14:20:21.993Z,14.18
2022-09-18T14:25:44.432Z,13.95
2022-09-18T14:31:17.702Z,13.89
2022-09-18T14:36:19.102Z,13.88
2022-09-18T14:41:29.252Z,13.89
2022-09-18T14:46:32.033Z,13.77
2022-09-18T14:51:49.329Z,13.79
2022-09-18T14:56:53.769Z,13.82
2022-09-18T15:02:22.567Z,13.90
2022-09-18T15:07:24.226Z,13.88
2022-09-18T15:12:28.113Z,13.83
2022-09-18T15:17:32.265Z,13.83
2022-09-18T15:22:33.555Z,13.69
2022-09-18T15:27:35.079Z,13.66
2022-09-18T15:32:42.387Z,13.64
2022-09-18T15:37:50.756Z,13.56
2022-09-18T15:42:58.289Z,13.47
2022-09-18T15:48:02.428Z,13.49
2022-09-18T15:53:15.957Z,13.54
2022-09-18T15:58:28.557Z,13.34
2022-09-18T16:03:31.449Z,13.35
2022-09-18T16:08:35.728Z,13.44
2022-09-18T16:13:38.851Z,13.52
2022-09-18T16:19:07.478Z,13.50
2022-09-18T16:24:20.945Z,13.39
2022-09-18T16:29:23.103Z,13.30
2022-09-18T16:34:27.471Z,13.25
2022-09-18T16:39:28.676Z,13.16
2022-09-18T16:44:30.049Z,13.23
2022-09-18T16:49:35.520Z,13.21
2022-09-18T16:54:36.849Z,13.24
2022-09-18T16:59:42.670Z,13.18
2022-09-18T17:04:44.008Z,12.95
2022-09-18T17:09:45.295Z,12.98
2022-09-18T17:14:46.533Z,12.80
2022-09-18T17:19:47.980Z,12.69
2022-09-18T17:24:51.183Z,12.68
2022-09-18T17:29:52.504Z,12.48
2022-09-18T17:34:53.778Z,12.56
2022-09-18T17:39:55.868Z,12.70
2022-09-18T17:44:57.119Z,12.74
2022-09-18T17:49:58.445Z,12.63
2022-09-18T17:55:00.016Z,12.71
2022-09-18T18:00:01.645Z,12.61
2022-09-18T18:05:03.351Z,12.58
2022-09-18T18:10:05.056Z,12.39
2022-09-18T18:15:07.420Z,12.28
2022-09-18T18:20:09.630Z,12.31
2022-09-18T18:25:12.198Z,12.37
2022-09-18T18:30:14.557Z,12.43
2022-09-18T18:35:15.843Z,12.42
2022-09-18T18:40:17.203Z,12.53
2022-09-18T18:45:19.649Z,12.29
2022-09-18T18:50:21.760Z,12.18
2022-09-18T18:55:23.492Z,12.19
2022-09-18T19:00:27.314Z,12.36
2022-09-18T19:05:30.368Z,12.45
2022-09-18T19:10:32.169Z,12.40
2022-09-18T19:15:38.440Z,12.32
2022-09-18T19:20:40.103Z,12.19
2022-09-18T19:25:41.633Z,12.08
2022-09-18T19:30:43.362Z,12.08
2022-09-18T19:35:44.716Z,12.08
2022-09-18T19:40:49.410Z,12.14
2022-09-18T19:45:50.802Z,12.20
2022-09-18T19:50:55.521Z,12.03
2022-09-18T19:55:57.016Z,11.91
2022-09-18T20:01:01.273Z,11.91
2022-09-18T20:06:03.153Z,11.81
2022-09-18T20:11:04.864Z,11.88
2022-09-18T20:16:08.987Z,11.96
2022-09-18T20:21:13.125Z,11.95
2022-09-18T20:26:17.201Z,11.88
2022-09-18T20:31:20.551Z,11.84
2022-09-18T20:36:22.547Z,11.80
2022-09-18T20:41:26.813Z,11.63
2022-09-18T20:46:28.301Z,11.56
2022-09-18T20:51:35.755Z,11.58
2022-09-18T20:56:41.952Z,11.62
2022-09-18T21:01:45.465Z,11.56
2022-09-18T21:06:55.067Z,11.45
2022-09-18T21:11:56.587Z,11.48
2022-09-18T21:16:57.841Z,11.54
2022-09-18T21:21:59.122Z,11.40
2022-09-18T21:27:00.370Z,11.23
2022-09-18T21:32:01.821Z,10.92
2022-09-18T21:37:08.037Z,10.82
2022-09-18T21:42:09.604Z,10.63
2022-09-18T21:47:12.718Z,10.47
2022-09-18T21:52:14.595Z,10.52
2022-09-18T21:57:16.364Z,10.30
2022-09-18T22:02:20.415Z,10.12
2022-09-18T22:07:24.137Z,9.98
2022-09-18T22:12:25.436Z,9.95
2022-09-18T22:17:27.362Z,9.89
2022-09-18T22:22:28.696Z,9.91
2022-09-18T22:27:31.192Z,9.83
2022-09-18T22:32:32.513Z,9.83
2022-09-18T22:37:33.849Z,9.76
2022-09-18T22:42:35.093Z,9.86
2022-09-18T22:47:36.334Z,9.81
2022-09-18T22:52:37.893Z,9.76
2022-09-18T22:57:39.189Z,9.78
2022-09-18T23:02:42.588Z,9.83
2022-09-18T23:07:46.321Z,9.80
2022-09-18T23:12:47.612Z,9.84
2022-09-18T23:17:48.853Z,9.75
2022-09-18T23:22:50.109Z,9.84
2022-09-18T23:27:52.836Z,9.72
2022-09-18T23:32:54.118Z,9.68
2022-09-18T23:37:56.439Z,9.77
2022-09-18T23:42:57.674Z,9.92
2022-09-18T23:47:58.933Z,9.98
2022-09-18T23:53:00.205Z,10.07
2022-09-18T23:58:01.504Z,10.15
